Terminal Aerodrome Forecast
Issued by NWS Blacksburg, VA

Home | Current Version | Previous Version | Text Only | Print | Product List | Glossary On
Versions: 1 2 3 4 5 6 7 8 9 10 11 12 13 14 15 16 17 18 19 20 21 22 23 24
000
FTUS41 KRNK 312332
TAFROA
TAF
KROA 312332Z 0100/0124 18006KT P6SM SCT070 BKN110
     FM010800 15004KT 6SM -RA BR SCT020 OVC050
     FM011500 07007KT 6SM RA BR SCT009 OVC015=

USA.gov is the U.S. government's official web portal to all federal, state and local government web resources and services.